Time;durP1;ratioP1;P1;durP2;ratioP2;P2;SDS_P1;SDS_P2;PMS_P1;PMS_P2;Temp;Humidity;BMP_temperature;BMP_pressure;BME280_temperature;BME280_humidity;BME280_pressure;Samples;Min_cycle;Max_cycle;Signal;HPM_P1;HPM_P2
2023/07/06 00:01:00;;;;;;;7.88;4.65;;;14.70;62.90;;;;;;5011499;28;20754;-75
2023/07/06 00:03:26;;;;;;;6.70;4.55;;;14.70;62.90;;;;;;4998024;28;20410;-76
2023/07/06 00:05:52;;;;;;;5.25;4.13;;;14.80;62.70;;;;;;5010669;28;20397;-76
2023/07/06 00:08:18;;;;;;;6.78;4.90;;;14.70;63.00;;;;;;5011128;28;20388;-75
2023/07/06 00:10:45;;;;;;;7.15;4.88;;;14.70;62.90;;;;;;5010154;28;20868;-73
2023/07/06 00:13:12;;;;;;;7.82;4.65;;;14.60;63.40;;;;;;5010375;28;20445;-73
2023/07/06 00:15:41;;;;;;;9.20;5.00;;;14.50;64.50;;;;;;5010764;28;20874;-72
2023/07/06 00:18:08;;;;;;;7.72;4.97;;;14.40;65.20;;;;;;5011133;28;20389;-73
2023/07/06 00:20:38;;;;;;;7.53;5.47;;;14.30;66.50;;;;;;5010938;28;20410;-72
2023/07/06 00:23:08;;;;;;;10.57;4.90;;;14.30;67.40;;;;;;5010496;28;20424;-74
2023/07/06 00:25:34;;;;;;;9.45;4.97;;;14.20;68.20;;;;;;5010770;28;20782;-73
2023/07/06 00:28:02;;;;;;;9.75;5.18;;;14.10;69.40;;;;;;5010844;28;20400;-72
2023/07/06 00:33:17;;;;;;;8.00;5.33;;;14.10;70.70;;;;;;5010679;28;20487;-71
2023/07/06 00:35:44;;;;;;;10.50;5.43;;;14.00;71.40;;;;;;5010360;28;20384;-71
2023/07/06 00:38:14;;;;;;;7.43;5.65;;;13.90;72.20;;;;;;5010650;28;20388;-72
2023/07/06 00:40:42;;;;;;;9.32;5.45;;;14.00;72.70;;;;;;5010536;28;20393;-72
2023/07/06 00:43:15;;;;;;;8.13;5.60;;;13.90;72.90;;;;;;5010407;28;20385;-73
2023/07/06 00:45:45;;;;;;;8.90;5.47;;;13.90;73.60;;;;;;5010923;28;20381;-72
2023/07/06 00:48:23;;;;;;;7.50;4.97;;;13.90;73.70;;;;;;5010823;28;20405;-72
2023/07/06 00:50:56;;;;;;;7.78;5.30;;;13.90;73.40;;;;;;5010890;28;20806;-74
2023/07/06 00:53:27;;;;;;;6.20;5.05;;;13.90;74.30;;;;;;5011089;28;20413;-72
2023/07/06 00:55:57;;;;;;;9.30;5.30;;;13.80;74.10;;;;;;5011622;28;20384;-72
2023/07/06 00:58:27;;;;;;;6.70;5.40;;;13.70;74.70;;;;;;5012334;28;20408;-72
2023/07/06 01:00:56;;;;;;;11.70;6.40;;;13.60;75.40;;;;;;5020256;28;20435;-72
2023/07/06 01:03:22;;;;;;;10.80;5.80;;;13.60;76.20;;;;;;5028443;28;20392;-72
2023/07/06 01:05:51;;;;;;;9.70;6.18;;;13.60;77.00;;;;;;5012506;28;20389;-74
2023/07/06 01:08:20;;;;;;;8.50;5.72;;;13.50;77.90;;;;;;5010324;28;20467;-72
2023/07/06 01:10:48;;;;;;;8.25;6.20;;;13.50;78.40;;;;;;5010134;28;20384;-74
2023/07/06 01:13:14;;;;;;;13.43;6.17;;;13.50;78.50;;;;;;5010090;28;20405;-74
2023/07/06 01:15:45;;;;;;;7.72;5.88;;;13.50;79.20;;;;;;5010652;28;20395;-74
2023/07/06 01:18:26;;;;;;;15.52;6.05;;;13.40;79.70;;;;;;5010369;28;20465;-73
2023/07/06 01:21:06;;;;;;;9.65;6.20;;;13.40;80.60;;;;;;5011162;28;20762;-74
2023/07/06 01:24:09;;;;;;;10.57;6.10;;;13.40;80.80;;;;;;5014071;28;20420;-72
2023/07/06 01:27:03;;;;;;;12.90;7.45;;;13.30;81.10;;;;;;5014094;28;20385;-73
2023/07/06 01:29:36;;;;;;;10.95;6.80;;;13.20;82.30;;;;;;5012823;28;20535;-73
2023/07/06 01:32:06;;;;;;;10.73;7.00;;;13.20;83.40;;;;;;5012554;28;20416;-73
2023/07/06 01:34:45;;;;;;;9.05;7.07;;;13.20;83.10;;;;;;5012734;28;20381;-73
2023/07/06 01:37:34;;;;;;;8.77;6.70;;;13.20;83.20;;;;;;5012740;28;20479;-73
2023/07/06 01:40:04;;;;;;;10.45;6.85;;;13.20;84.80;;;;;;5013523;28;20377;-72
2023/07/06 01:42:31;;;;;;;13.13;6.88;;;13.20;84.50;;;;;;5013373;28;20428;-73
2023/07/06 01:45:16;;;;;;;13.07;7.15;;;13.10;85.30;;;;;;5013989;28;20423;-72
2023/07/06 01:47:45;;;;;;;12.67;7.00;;;13.10;85.50;;;;;;5013045;28;20415;-73
2023/07/06 01:50:14;;;;;;;11.43;7.10;;;13.10;85.70;;;;;;5012892;28;20396;-72
2023/07/06 01:53:15;;;;;;;15.25;7.70;;;13.10;86.00;;;;;;5014573;28;20417;-74
2023/07/06 01:55:47;;;;;;;15.67;7.10;;;13.10;85.60;;;;;;5014508;28;20941;-72
2023/07/06 01:58:24;;;;;;;13.30;8.30;;;13.10;86.40;;;;;;5013317;28;20411;-73
2023/07/06 02:00:56;;;;;;;13.95;7.90;;;13.00;86.80;;;;;;5012223;28;20385;-72
2023/07/06 02:03:24;;;;;;;12.50;7.57;;;13.00;87.00;;;;;;5011992;28;20454;-73
2023/07/06 02:05:51;;;;;;;15.80;7.82;;;13.00;87.20;;;;;;5012002;28;20385;-72
2023/07/06 02:08:18;;;;;;;9.63;8.10;;;12.90;87.40;;;;;;5012208;28;20389;-72
2023/07/06 02:10:43;;;;;;;11.20;7.40;;;12.90;87.50;;;;;;5011779;28;20407;-72
2023/07/06 02:13:09;;;;;;;14.93;7.60;;;12.90;88.10;;;;;;5011617;28;20405;-73
2023/07/06 02:15:35;;;;;;;11.40;7.82;;;12.90;88.20;;;;;;5011797;28;20795;-72
2023/07/06 02:18:02;;;;;;;15.17;9.03;;;12.90;87.50;;;;;;5012064;28;20597;-72
2023/07/06 02:20:27;;;;;;;14.45;7.90;;;12.90;87.90;;;;;;5012284;28;20456;-73
2023/07/06 02:22:53;;;;;;;14.57;7.70;;;12.80;87.90;;;;;;5013324;28;20807;-72
2023/07/06 02:25:20;;;;;;;12.20;7.50;;;12.80;87.90;;;;;;5012419;28;20385;-72
2023/07/06 02:27:46;;;;;;;11.33;7.07;;;12.90;88.50;;;;;;4951216;28;1748715;-72
2023/07/06 02:30:12;;;;;;;12.73;7.70;;;12.80;87.40;;;;;;5012988;28;20393;-73
2023/07/06 02:32:42;;;;;;;9.40;7.60;;;12.70;87.90;;;;;;5011496;28;20474;-74
2023/07/06 02:35:10;;;;;;;13.77;7.82;;;12.70;88.30;;;;;;5013719;28;20392;-73
2023/07/06 02:37:38;;;;;;;13.73;7.22;;;12.60;88.80;;;;;;5012826;28;20389;-73
2023/07/06 02:40:07;;;;;;;17.52;8.10;;;12.60;89.20;;;;;;5012620;28;20384;-72
2023/07/06 02:42:34;;;;;;;15.77;7.90;;;12.60;89.30;;;;;;5012614;28;20534;-72
2023/07/06 02:45:00;;;;;;;13.27;7.43;;;12.60;89.20;;;;;;5013036;28;20446;-71
2023/07/06 02:47:25;;;;;;;13.93;7.97;;;12.60;88.90;;;;;;5012062;28;20475;-73
2023/07/06 02:49:51;;;;;;;8.50;7.20;;;12.60;89.00;;;;;;5012120;28;20727;-73
2023/07/06 02:52:16;;;;;;;14.33;7.20;;;12.60;89.00;;;;;;5011837;28;20671;-73
2023/07/06 02:54:42;;;;;;;11.23;7.10;;;12.50;89.10;;;;;;5011964;28;20389;-73
2023/07/06 02:57:08;;;;;;;13.73;7.80;;;12.50;89.30;;;;;;5011831;28;20389;-73
2023/07/06 02:59:33;;;;;;;12.80;7.20;;;12.50;89.50;;;;;;5011915;28;20404;-72
2023/07/06 03:01:59;;;;;;;12.70;7.10;;;12.50;88.90;;;;;;5011827;28;20846;-73
2023/07/06 03:04:25;;;;;;;9.83;6.60;;;12.40;88.80;;;;;;5011722;28;20420;-72
2023/07/06 03:06:51;;;;;;;10.85;6.93;;;12.50;88.40;;;;;;5012004;28;20896;-73
2023/07/06 03:09:17;;;;;;;14.10;7.40;;;12.50;88.00;;;;;;5011892;28;20400;-72
2023/07/06 03:11:44;;;;;;;14.45;7.18;;;12.50;87.70;;;;;;5011506;28;20413;-72
2023/07/06 03:14:11;;;;;;;13.13;7.00;;;12.40;87.50;;;;;;5011912;28;20389;-73
2023/07/06 03:16:40;;;;;;;10.95;6.70;;;12.40;87.70;;;;;;5011627;28;20759;-72
2023/07/06 03:19:08;;;;;;;14.20;6.80;;;12.30;87.70;;;;;;5011834;28;20443;-72
2023/07/06 03:21:34;;;;;;;14.60;6.80;;;12.30;87.70;;;;;;5011489;28;20434;-72
2023/07/06 03:24:01;;;;;;;15.20;6.80;;;12.30;87.70;;;;;;5012288;28;20392;-73
2023/07/06 03:26:26;;;;;;;12.45;7.30;;;12.30;87.40;;;;;;5011971;28;20876;-72
2023/07/06 03:28:52;;;;;;;13.05;6.00;;;12.40;86.50;;;;;;5013271;28;20439;-74
2023/07/06 03:31:19;;;;;;;13.55;6.80;;;12.40;85.40;;;;;;5011931;28;20439;-73
2023/07/06 03:33:45;;;;;;;12.85;6.45;;;12.40;84.70;;;;;;5011543;28;20392;-74
2023/07/06 03:36:11;;;;;;;10.15;6.00;;;12.40;84.70;;;;;;5011953;28;20393;-73
2023/07/06 03:38:36;;;;;;;14.50;6.90;;;12.30;84.80;;;;;;5012138;28;20425;-74
2023/07/06 03:41:03;;;;;;;11.68;5.82;;;12.50;84.70;;;;;;5012106;28;20937;-73
2023/07/06 03:43:29;;;;;;;13.50;6.75;;;12.50;83.40;;;;;;5012103;28;20392;-75
2023/07/06 03:45:55;;;;;;;16.13;6.45;;;12.60;81.60;;;;;;5012218;28;20405;-74
2023/07/06 03:48:21;;;;;;;7.60;5.68;;;12.70;78.70;;;;;;5012537;28;20389;-75
2023/07/06 03:50:52;;;;;;;13.73;5.75;;;12.70;78.40;;;;;;5012397;28;20381;-74
2023/07/06 03:53:18;;;;;;;10.02;5.90;;;12.70;77.70;;;;;;5012307;28;20481;-74
2023/07/06 03:55:44;;;;;;;14.88;6.60;;;12.70;77.70;;;;;;5011817;28;20397;-75
2023/07/06 03:58:10;;;;;;;9.85;6.00;;;12.70;76.60;;;;;;5011530;28;20381;-74
2023/07/06 04:00:36;;;;;;;7.50;5.60;;;12.70;76.60;;;;;;4993453;28;20385;-74
2023/07/06 04:03:06;;;;;;;9.10;5.47;;;12.70;77.20;;;;;;5011273;28;20389;-73
2023/07/06 04:05:43;;;;;;;12.60;6.20;;;12.70;77.70;;;;;;5011241;28;20393;-74
2023/07/06 04:08:12;;;;;;;9.27;6.00;;;12.70;78.10;;;;;;5011564;28;20393;-75
2023/07/06 04:10:40;;;;;;;11.13;6.20;;;12.70;78.10;;;;;;5011858;28;20388;-75
2023/07/06 04:13:06;;;;;;;13.23;6.47;;;12.70;78.10;;;;;;5012403;28;20405;-73
2023/07/06 04:15:32;;;;;;;11.73;6.55;;;12.80;77.70;;;;;;5013159;28;20385;-74
2023/07/06 04:17:58;;;;;;;11.65;6.18;;;12.80;77.70;;;;;;5013151;28;20480;-74
2023/07/06 04:20:28;;;;;;;9.68;5.75;;;12.90;77.60;;;;;;5017248;28;20405;-74
2023/07/06 04:22:55;;;;;;;11.83;6.53;;;13.00;76.20;;;;;;5010752;28;20381;-73
2023/07/06 04:25:22;;;;;;;9.25;6.03;;;13.10;74.70;;;;;;5026600;28;20973;-73
2023/07/06 04:27:48;;;;;;;10.87;5.40;;;13.10;73.60;;;;;;5014876;28;20428;-73
2023/07/06 04:30:15;;;;;;;15.88;5.80;;;13.20;72.40;;;;;;5010837;28;20866;-75
2023/07/06 04:32:45;;;;;;;15.33;5.60;;;13.30;69.20;;;;;;5010683;28;20400;-74
2023/07/06 04:35:12;;;;;;;12.85;5.90;;;13.50;67.30;;;;;;5010761;28;20515;-75
2023/07/06 04:37:37;;;;;;;11.40;5.50;;;13.50;66.60;;;;;;5010715;28;20787;-74
2023/07/06 04:40:11;;;;;;;13.60;6.10;;;13.50;67.10;;;;;;5011144;28;20538;-74
2023/07/06 04:42:37;;;;;;;11.27;5.63;;;13.60;66.60;;;;;;5010390;28;20868;-75
2023/07/06 04:45:03;;;;;;;10.63;4.90;;;13.60;65.70;;;;;;5010859;28;20398;-73
2023/07/06 04:47:29;;;;;;;16.83;6.40;;;13.70;65.30;;;;;;5010724;28;20397;-75
2023/07/06 04:49:55;;;;;;;13.20;5.50;;;13.90;64.40;;;;;;5010806;28;20398;-74
2023/07/06 04:52:21;;;;;;;11.63;5.60;;;13.90;64.50;;;;;;5010956;28;20422;-74
2023/07/06 04:54:50;;;;;;;14.43;5.90;;;14.10;63.30;;;;;;5011678;28;20477;-74
2023/07/06 04:57:16;;;;;;;7.60;5.00;;;14.20;63.10;;;;;;5014542;28;20379;-75
2023/07/06 04:59:42;;;;;;;14.57;5.32;;;14.40;62.40;;;;;;5014528;28;20438;-75
2023/07/06 05:02:10;;;;;;;14.23;5.15;;;14.60;58.10;;;;;;5014412;28;20393;-76
2023/07/06 05:04:40;;;;;;;12.82;5.13;;;14.90;56.00;;;;;;5014618;28;20384;-74
2023/07/06 05:07:06;;;;;;;18.33;6.47;;;15.10;52.90;;;;;;5014655;28;20754;-76
2023/07/06 05:09:32;;;;;;;15.85;4.80;;;15.30;48.10;;;;;;5014354;28;20389;-74
2023/07/06 05:11:58;;;;;;;11.65;4.20;;;15.50;47.00;;;;;;5014074;28;20404;-76
2023/07/06 05:14:24;;;;;;;13.30;4.70;;;15.60;45.80;;;;;;5014184;28;20385;-72
2023/07/06 05:16:49;;;;;;;14.25;4.50;;;15.80;44.00;;;;;;5014342;28;20458;-73
2023/07/06 05:19:15;;;;;;;12.43;4.00;;;15.70;42.70;;;;;;4996878;28;20392;-73
2023/07/06 05:21:41;;;;;;;13.73;3.80;;;15.70;42.40;;;;;;5013838;28;20491;-74
2023/07/06 05:24:07;;;;;;;12.82;4.20;;;15.80;39.30;;;;;;5014260;28;20475;-73
2023/07/06 05:26:32;;;;;;;9.88;4.20;;;15.80;40.40;;;;;;4996336;28;20398;-75
2023/07/06 05:28:58;;;;;;;13.30;4.03;;;15.80;41.00;;;;;;5014801;28;20892;-75
2023/07/06 05:31:23;;;;;;;11.77;4.50;;;15.70;40.50;;;;;;5015790;28;20377;-75
2023/07/06 05:33:49;;;;;;;18.43;4.13;;;15.60;41.00;;;;;;5015000;28;20389;-74
2023/07/06 05:36:15;;;;;;;13.50;4.10;;;15.80;39.50;;;;;;5014893;28;20380;-74
2023/07/06 05:38:40;;;;;;;15.55;4.40;;;15.80;39.70;;;;;;5015835;28;20463;-76
2023/07/06 05:41:06;;;;;;;14.17;3.80;;;15.70;39.80;;;;;;5014686;28;20412;-75
2023/07/06 05:43:31;;;;;;;11.40;3.70;;;15.70;40.60;;;;;;5014076;28;20746;-74
2023/07/06 05:45:57;;;;;;;11.20;4.15;;;15.80;39.00;;;;;;5014890;28;20737;-73
2023/07/06 05:48:22;;;;;;;10.25;4.40;;;15.80;39.00;;;;;;5014934;28;20389;-74
2023/07/06 05:50:48;;;;;;;18.50;3.90;;;15.70;39.90;;;;;;5013661;28;20471;-73
2023/07/06 05:53:13;;;;;;;14.77;4.23;;;15.60;39.90;;;;;;5013517;28;20405;-73
2023/07/06 05:55:43;;;;;;;21.20;4.75;;;15.80;39.00;;;;;;4995697;28;20393;-74
2023/07/06 05:58:13;;;;;;;12.43;3.80;;;15.80;39.70;;;;;;5013350;28;20421;-74
2023/07/06 06:00:39;;;;;;;8.57;3.53;;;15.90;39.00;;;;;;5013626;28;20385;-73
2023/07/06 06:03:05;;;;;;;11.20;3.97;;;16.00;38.70;;;;;;5013141;28;20380;-72
2023/07/06 06:05:31;;;;;;;11.40;3.93;;;16.20;38.50;;;;;;5015058;28;20393;-73
2023/07/06 06:07:58;;;;;;;14.20;3.75;;;16.20;38.10;;;;;;5016297;28;20393;-74
2023/07/06 06:10:23;;;;;;;10.70;3.90;;;16.00;38.20;;;;;;5002258;28;20396;-74
2023/07/06 06:12:49;;;;;;;15.47;4.07;;;15.90;39.10;;;;;;5018277;28;20405;-74
2023/07/06 06:15:15;;;;;;;11.18;3.67;;;15.90;39.10;;;;;;5014369;28;20715;-73
2023/07/06 06:17:41;;;;;;;13.32;4.13;;;16.10;38.50;;;;;;5012970;28;20853;-73
2023/07/06 06:20:10;;;;;;;11.57;4.40;;;16.10;38.40;;;;;;5013014;28;20397;-74
2023/07/06 06:22:37;;;;;;;12.55;4.03;;;16.20;38.60;;;;;;5012748;28;20384;-73
2023/07/06 06:25:03;;;;;;;16.43;3.90;;;16.30;38.20;;;;;;5012936;28;20754;-75
2023/07/06 06:27:29;;;;;;;13.35;4.05;;;16.30;37.50;;;;;;5012563;28;20392;-73
2023/07/06 06:29:55;;;;;;;12.18;4.20;;;16.50;37.60;;;;;;5012803;28;20415;-72
2023/07/06 06:32:22;;;;;;;11.02;3.70;;;16.70;37.20;;;;;;5012361;28;20409;-73
2023/07/06 06:34:48;;;;;;;14.88;3.83;;;16.90;35.20;;;;;;5012663;28;20858;-73
2023/07/06 06:37:16;;;;;;;15.32;4.50;;;16.90;35.30;;;;;;5012449;28;20396;-74
2023/07/06 06:39:41;;;;;;;12.52;3.83;;;16.90;35.50;;;;;;5012933;28;20486;-73
2023/07/06 06:42:07;;;;;;;10.47;3.83;;;17.00;35.30;;;;;;4995251;28;20484;-73
2023/07/06 06:44:34;;;;;;;9.18;3.80;;;17.00;35.20;;;;;;5012769;28;20388;-73
2023/07/06 06:47:01;;;;;;;16.02;4.20;;;17.10;35.40;;;;;;5012475;28;20401;-72
2023/07/06 06:49:28;;;;;;;14.90;3.80;;;17.00;36.00;;;;;;5012394;28;20392;-73
2023/07/06 06:51:54;;;;;;;12.05;4.72;;;16.90;36.40;;;;;;5012285;28;20415;-74
2023/07/06 06:54:19;;;;;;;14.98;4.32;;;16.70;36.50;;;;;;5012589;28;20464;-73
2023/07/06 06:56:45;;;;;;;16.10;4.50;;;16.60;37.40;;;;;;5012174;28;20411;-73
2023/07/06 06:59:11;;;;;;;11.88;4.25;;;16.70;38.20;;;;;;5012123;28;20751;-72
2023/07/06 07:01:38;;;;;;;12.65;4.40;;;16.90;37.50;;;;;;5012434;28;20758;-74
2023/07/06 07:04:04;;;;;;;17.40;4.00;;;17.10;36.80;;;;;;5012213;28;20480;-73
2023/07/06 07:06:30;;;;;;;20.83;4.50;;;17.20;36.20;;;;;;5012131;28;20384;-73
2023/07/06 07:08:57;;;;;;;13.25;4.20;;;17.20;36.60;;;;;;5011687;28;20420;-73
2023/07/06 07:11:24;;;;;;;18.33;4.13;;;17.30;36.20;;;;;;5011686;28;20746;-72
2023/07/06 07:13:51;;;;;;;12.50;4.43;;;17.40;36.20;;;;;;5017403;28;20939;-74
2023/07/06 07:16:17;;;;;;;18.60;4.40;;;17.40;35.30;;;;;;5020069;28;20399;-73
2023/07/06 07:18:43;;;;;;;18.03;4.70;;;17.50;35.90;;;;;;5018808;28;20396;-73
2023/07/06 07:21:10;;;;;;;14.63;4.07;;;17.50;35.30;;;;;;5011749;28;20758;-74
2023/07/06 07:23:43;;;;;;;14.77;4.50;;;17.60;35.40;;;;;;5012982;28;20408;-74
2023/07/06 07:26:13;;;;;;;16.85;4.55;;;17.70;35.60;;;;;;5012397;28;20459;-76
2023/07/06 07:28:40;;;;;;;20.13;4.35;;;17.90;35.20;;;;;;5012891;28;20496;-75
2023/07/06 07:31:07;;;;;;;21.90;4.68;;;17.90;34.80;;;;;;5012425;28;20451;-75
2023/07/06 07:33:34;;;;;;;17.00;5.00;;;17.90;34.50;;;;;;5013742;28;20503;-75
2023/07/06 07:36:02;;;;;;;12.75;3.83;;;18.00;34.50;;;;;;5014033;28;20421;-74
2023/07/06 07:38:28;;;;;;;16.52;3.88;;;18.10;34.20;;;;;;5013663;28;20419;-75
2023/07/06 07:40:56;;;;;;;16.40;4.30;;;18.20;33.40;;;;;;5012812;28;20472;-76
2023/07/06 07:43:27;;;;;;;12.90;4.45;;;18.00;33.50;;;;;;5016919;28;20389;-76
2023/07/06 07:45:57;;;;;;;16.02;4.50;;;17.80;34.30;;;;;;5032998;28;20717;-75
2023/07/06 07:48:24;;;;;;;17.53;4.70;;;17.90;34.20;;;;;;5033088;28;20398;-76
2023/07/06 07:50:53;;;;;;;17.37;4.60;;;17.80;33.80;;;;;;5035286;28;20572;-74
2023/07/06 07:53:22;;;;;;;16.95;4.70;;;17.80;34.40;;;;;;5033722;28;20517;-74
2023/07/06 07:55:48;;;;;;;11.00;3.97;;;17.90;34.00;;;;;;5034184;28;20391;-75
2023/07/06 07:58:14;;;;;;;13.40;4.05;;;18.00;33.60;;;;;;5015032;28;20389;-75
2023/07/06 08:00:40;;;;;;;17.63;4.22;;;18.00;33.20;;;;;;5018971;28;20387;-75
2023/07/06 08:03:05;;;;;;;10.97;3.80;;;18.10;33.20;;;;;;5025816;28;20451;-75
2023/07/06 08:05:31;;;;;;;12.37;3.87;;;18.30;33.00;;;;;;5026303;28;20424;-75
2023/07/06 08:07:57;;;;;;;12.40;4.00;;;18.40;32.70;;;;;;5021595;28;20392;-75
2023/07/06 08:10:23;;;;;;;13.55;4.38;;;18.40;32.30;;;;;;5023664;28;20409;-75
2023/07/06 08:12:49;;;;;;;13.27;3.80;;;18.60;32.20;;;;;;5018794;28;20401;-75
2023/07/06 08:15:15;;;;;;;11.97;3.83;;;18.60;31.70;;;;;;5011928;28;20476;-76
2023/07/06 08:17:41;;;;;;;12.57;4.43;;;18.70;31.70;;;;;;5011699;28;20412;-74
2023/07/06 08:20:10;;;;;;;19.13;4.13;;;18.80;31.60;;;;;;5012511;28;20420;-73
2023/07/06 08:22:36;;;;;;;12.35;3.72;;;18.90;30.90;;;;;;5013660;28;20427;-73
2023/07/06 08:25:02;;;;;;;13.70;4.40;;;18.80;29.70;;;;;;5016778;28;20508;-75
2023/07/06 08:27:29;;;;;;;12.13;3.93;;;18.80;29.80;;;;;;5018487;28;20409;-76
2023/07/06 08:29:55;;;;;;;9.57;3.80;;;18.90;30.50;;;;;;4995863;28;20739;-74
2023/07/06 08:32:21;;;;;;;10.13;4.13;;;18.80;30.50;;;;;;5018960;28;20408;-75
2023/07/06 08:34:47;;;;;;;12.70;3.80;;;18.90;30.10;;;;;;4997475;28;20406;-77
2023/07/06 08:37:13;;;;;;;16.13;4.32;;;18.90;30.10;;;;;;4995570;28;20623;-76
2023/07/06 08:39:39;;;;;;;10.67;3.30;;;18.90;30.40;;;;;;5021748;28;20391;-75
2023/07/06 08:42:09;;;;;;;13.30;3.60;;;19.00;30.20;;;;;;5027699;28;20408;-75
2023/07/06 08:44:36;;;;;;;11.52;3.60;;;19.10;29.60;;;;;;5015533;28;20480;-75
2023/07/06 08:47:04;;;;;;;11.48;3.92;;;19.20;28.80;;;;;;5012562;28;20407;-76
2023/07/06 08:49:32;;;;;;;19.45;3.85;;;19.20;28.90;;;;;;4994296;28;20411;-76
2023/07/06 08:52:02;;;;;;;8.77;3.70;;;19.50;28.10;;;;;;5011813;28;20404;-76
2023/07/06 08:54:28;;;;;;;13.50;3.40;;;19.60;27.80;;;;;;5012458;28;20392;-76
2023/07/06 08:56:54;;;;;;;12.35;3.22;;;19.60;27.80;;;;;;5012096;28;20389;-75
2023/07/06 08:59:37;;;;;;;12.32;3.50;;;19.70;26.90;;;;;;5012150;28;20396;-75
2023/07/06 09:02:24;;;;;;;11.80;3.60;;;20.00;26.60;;;;;;5012576;28;20734;-77
2023/07/06 09:04:52;;;;;;;10.10;3.42;;;20.40;25.40;;;;;;5011912;28;20381;-76
2023/07/06 09:07:24;;;;;;;11.30;3.53;;;20.40;25.40;;;;;;5011235;28;20412;-77
2023/07/06 09:09:51;;;;;;;8.05;3.53;;;20.50;25.00;;;;;;5011156;28;20383;-76
2023/07/06 09:12:33;;;;;;;7.50;2.70;;;20.50;25.30;;;;;;5010918;28;20413;-74
2023/07/06 09:14:59;;;;;;;11.68;3.00;;;20.40;25.20;;;;;;5011093;28;20774;-75
2023/07/06 09:17:26;;;;;;;11.87;3.50;;;20.30;24.80;;;;;;5010631;28;20754;-75
2023/07/06 09:19:53;;;;;;;10.02;3.20;;;20.60;24.70;;;;;;5014540;28;20433;-75
2023/07/06 09:22:22;;;;;;;6.45;2.75;;;20.90;23.90;;;;;;5010679;28;20449;-76
2023/07/06 09:24:48;;;;;;;8.45;3.55;;;21.20;23.00;;;;;;5023659;28;20469;-75
2023/07/06 09:27:26;;;;;;;11.93;3.10;;;21.20;22.80;;;;;;5042747;23;20411;-72
2023/07/06 09:30:05;;;;;;;12.32;3.40;;;21.20;22.20;;;;;;5019914;28;20385;-72
2023/07/06 09:32:32;;;;;;;7.53;3.00;;;21.10;23.10;;;;;;5016434;28;20405;-72
2023/07/06 09:35:11;;;;;;;10.18;2.80;;;21.10;22.30;;;;;;5011822;28;20388;-72
2023/07/06 09:37:47;;;;;;;10.13;3.03;;;21.10;21.90;;;;;;4993501;28;20559;-71
2023/07/06 09:40:14;;;;;;;8.40;2.90;;;21.10;21.10;;;;;;5010464;28;20380;-72
2023/07/06 09:42:41;;;;;;;10.98;3.05;;;21.10;21.10;;;;;;5012621;28;20393;-72
2023/07/06 09:45:25;;;;;;;9.35;2.92;;;21.20;21.50;;;;;;5014289;28;20400;-72
2023/07/06 09:47:57;;;;;;;14.18;3.33;;;21.10;20.00;;;;;;5014234;28;20761;-73
2023/07/06 09:50:32;;;;;;;7.22;2.45;;;21.00;21.20;;;;;;5014238;28;20400;-71
2023/07/06 09:52:59;;;;;;;6.95;2.50;;;21.10;21.00;;;;;;5014127;28;20761;-72
2023/07/06 09:55:29;;;;;;;9.43;2.60;;;21.20;20.00;;;;;;4996344;28;20396;-70
2023/07/06 09:57:57;;;;;;;9.43;2.80;;;21.20;20.20;;;;;;5014083;28;20392;-71
2023/07/06 10:00:28;;;;;;;4.88;2.33;;;21.30;19.20;;;;;;5014161;28;20838;-71
2023/07/06 10:03:13;;;;;;;5.25;2.58;;;21.10;18.30;;;;;;4995996;28;20399;-71
2023/07/06 10:05:53;;;;;;;8.02;2.90;;;21.10;18.70;;;;;;5013662;28;20742;-71
2023/07/06 10:08:50;;;;;;;8.48;2.20;;;21.20;18.60;;;;;;5015345;28;20393;-72
2023/07/06 10:11:51;;;;;;;6.85;2.20;;;21.40;18.60;;;;;;5009961;28;20833;-71
2023/07/06 10:14:25;;;;;;;5.78;2.13;;;21.40;17.50;;;;;;4971842;28;20766;-71
2023/07/06 10:17:03;;;;;;;5.78;2.30;;;21.60;17.20;;;;;;5013927;28;20392;-72
2023/07/06 10:19:45;;;;;;;6.45;2.10;;;21.90;17.10;;;;;;5013872;28;20389;-71
2023/07/06 10:22:29;;;;;;;5.40;1.90;;;21.90;15.80;;;;;;5012949;28;20688;-71
2023/07/06 10:25:22;;;;;;;6.78;2.58;;;21.90;15.90;;;;;;5013877;28;20733;-72
2023/07/06 10:27:53;;;;;;;9.87;2.40;;;22.10;15.90;;;;;;5006075;28;20407;-71
2023/07/06 10:30:25;;;;;;;6.00;2.20;;;22.30;15.50;;;;;;5033000;28;20836;-71
2023/07/06 10:32:54;;;;;;;6.63;2.47;;;22.50;15.20;;;;;;5032807;28;20434;-72
2023/07/06 10:35:26;;;;;;;8.50;2.50;;;22.70;14.20;;;;;;5033325;28;20818;-73
2023/07/06 10:37:53;;;;;;;6.10;2.20;;;22.80;14.30;;;;;;5031735;28;20406;-72
2023/07/06 10:40:25;;;;;;;5.00;2.50;;;23.10;14.30;;;;;;5032981;28;20433;-71
2023/07/06 10:43:13;;;;;;;4.00;2.17;;;23.50;13.70;;;;;;5032565;28;20457;-71
2023/07/06 10:46:05;;;;;;;3.00;1.50;;;23.90;12.00;;;;;;5032998;28;20773;-71
2023/07/06 10:48:35;;;;;;;6.05;2.30;;;24.10;10.90;;;;;;5032476;28;20418;-72
2023/07/06 10:51:15;;;;;;;3.58;1.70;;;24.00;10.90;;;;;;5032954;28;20395;-71
2023/07/06 10:53:43;;;;;;;4.22;1.80;;;24.00;10.90;;;;;;5030611;28;20405;-71
2023/07/06 10:56:11;;;;;;;5.15;1.80;;;24.30;10.60;;;;;;5032795;28;20385;-71
2023/07/06 10:58:48;;;;;;;4.30;1.80;;;24.40;9.70;;;;;;5031410;28;20390;-72
2023/07/06 11:01:16;;;;;;;5.63;1.88;;;24.40;9.30;;;;;;5032436;28;20406;-70
2023/07/06 11:03:43;;;;;;;5.13;1.73;;;24.40;9.40;;;;;;5032348;28;20379;-70
2023/07/06 11:06:36;;;;;;;2.70;1.40;;;24.60;9.30;;;;;;5032201;28;20406;-71
2023/07/06 11:09:08;;;;;;;4.25;1.60;;;24.60;8.80;;;;;;5031791;28;20399;-70
2023/07/06 11:12:04;;;;;;;3.33;1.50;;;24.70;8.50;;;;;;5012345;28;20889;-75
2023/07/06 11:14:35;;;;;;;4.70;1.90;;;25.00;7.80;;;;;;5012181;28;20393;-71
2023/07/06 11:17:03;;;;;;;2.05;1.38;;;24.80;8.10;;;;;;5030894;28;20478;-72
2023/07/06 11:19:44;;;;;;;2.47;1.45;;;24.80;7.90;;;;;;5031595;28;20395;-71
2023/07/06 11:22:16;;;;;;;2.63;1.63;;;24.60;8.30;;;;;;5028452;28;20536;-71
2023/07/06 11:24:48;;;;;;;4.85;1.40;;;24.30;8.00;;;;;;5031381;28;20383;-71
2023/07/06 11:27:22;;;;;;;2.60;1.63;;;24.00;7.90;;;;;;5029355;28;20410;-72
2023/07/06 11:29:48;;;;;;;4.60;1.60;;;24.00;7.80;;;;;;5011613;28;20762;-74
2023/07/06 11:32:18;;;;;;;2.10;1.30;;;24.10;6.90;;;;;;4996102;28;20462;-70
2023/07/06 11:35:09;;;;;;;2.70;1.20;;;24.40;7.00;;;;;;5012305;28;20443;-71
2023/07/06 11:37:49;;;;;;;4.88;1.55;;;24.60;6.80;;;;;;5011908;28;20501;-71
2023/07/06 11:41:09;;;;;;;3.90;1.33;;;25.00;7.00;;;;;;5011902;28;20873;-71
2023/07/06 11:43:43;;;;;;;3.95;1.63;;;25.40;5.30;;;;;;4920393;29;20521;-72
2023/07/06 11:46:25;;;;;;;2.30;1.30;;;25.60;5.20;;;;;;4912623;29;20428;-71
2023/07/06 11:49:40;;;;;;;3.92;1.50;;;25.60;5.90;;;;;;4962258;28;20858;-73
2023/07/06 11:52:14;;;;;;;2.17;1.35;;;25.60;4.40;;;;;;4944135;28;20532;-72
2023/07/06 11:54:51;;;;;;;3.53;1.60;;;25.70;3.20;;;;;;5012758;28;20889;-72
2023/07/06 11:57:41;;;;;;;1.92;1.25;;;25.70;3.90;;;;;;5009184;28;20403;-74
2023/07/06 12:00:18;;;;;;;2.60;1.40;;;26.00;4.30;;;;;;5009657;28;20416;-72
2023/07/06 12:02:55;;;;;;;7.30;1.40;;;25.80;3.80;;;;;;5012440;28;20846;-72
2023/07/06 12:05:29;;;;;;;4.43;1.50;;;26.10;3.60;;;;;;5011656;28;20425;-73
2023/07/06 12:08:00;;;;;;;3.90;1.50;;;26.30;3.90;;;;;;5013534;28;20392;-72
2023/07/06 12:10:32;;;;;;;3.95;1.38;;;26.40;2.80;;;;;;4994905;28;20460;-73
2023/07/06 12:12:58;;;;;;;2.40;1.40;;;25.90;2.60;;;;;;4993339;28;20440;-73
2023/07/06 12:15:24;;;;;;;8.20;1.98;;;25.50;4.10;;;;;;4992854;28;20400;-72
2023/07/06 12:17:58;;;;;;;2.47;1.50;;;25.40;5.80;;;;;;5012435;28;20726;-73
2023/07/06 12:20:25;;;;;;;3.13;1.35;;;25.60;5.10;;;;;;5012973;28;20404;-72
2023/07/06 12:22:57;;;;;;;2.78;1.35;;;25.80;4.10;;;;;;5012829;28;20401;-72
2023/07/06 12:25:25;;;;;;;4.30;1.40;;;25.80;3.60;;;;;;5011342;28;20396;-73
2023/07/06 12:27:59;;;;;;;4.30;1.40;;;25.90;3.50;;;;;;5012131;28;20489;-73
2023/07/06 12:30:33;;;;;;;4.00;1.70;;;26.30;3.60;;;;;;4994008;28;20446;-72
2023/07/06 12:33:04;;;;;;;2.70;1.40;;;26.30;4.10;;;;;;4991519;28;20402;-73
2023/07/06 12:35:29;;;;;;;3.10;1.38;;;26.50;3.90;;;;;;4993250;28;20890;-73
2023/07/06 12:37:56;;;;;;;2.10;1.30;;;26.70;3.60;;;;;;4991220;28;20398;-74
2023/07/06 12:40:25;;;;;;;3.35;1.30;;;26.70;2.10;;;;;;4992647;28;20970;-74
2023/07/06 12:42:52;;;;;;;3.30;1.30;;;27.00;3.50;;;;;;4991658;28;20406;-73
2023/07/06 12:45:22;;;;;;;4.00;1.40;;;26.90;2.30;;;;;;5004180;28;20982;-73
2023/07/06 12:47:57;;;;;;;2.80;1.83;;;27.00;4.00;;;;;;5008696;28;20389;-73
2023/07/06 12:50:26;;;;;;;4.20;1.50;;;27.00;4.10;;;;;;5009849;28;20879;-73
2023/07/06 12:53:21;;;;;;;2.80;1.50;;;26.80;2.60;;;;;;5010606;28;20505;-73
2023/07/06 12:55:48;;;;;;;2.60;1.30;;;26.50;2.80;;;;;;5011260;28;20419;-72
2023/07/06 12:58:34;;;;;;;4.22;1.50;;;26.30;3.10;;;;;;5018045;28;20922;-77
2023/07/06 13:01:25;;;;;;;2.78;1.33;;;26.30;3.50;;;;;;5019925;28;20488;-75